createdAt,value
2023-02-11T00:01:31.291Z,42.20
2023-02-11T00:04:00.295Z,43.70
2023-02-11T00:06:30.560Z,42.33
2023-02-11T00:08:58.687Z,44.78
2023-02-11T00:11:30.733Z,45.28
2023-02-11T00:14:02.649Z,43.35
2023-02-11T00:16:32.010Z,41.70
2023-02-11T00:19:03.401Z,44.95
2023-02-11T00:21:31.375Z,41.75
2023-02-11T00:24:02.340Z,43.08
2023-02-11T00:26:33.954Z,46.15
2023-02-11T00:29:02.890Z,46.20
2023-02-11T00:31:32.850Z,47.47
2023-02-11T00:34:00.839Z,47.37
2023-02-11T00:36:30.427Z,44.55
2023-02-11T00:39:00.305Z,44.38
2023-02-11T00:41:29.614Z,48.95
2023-02-11T00:44:01.642Z,50.22
2023-02-11T00:46:29.726Z,48.80
2023-02-11T00:48:57.938Z,48.67
2023-02-11T00:51:28.329Z,50.13
2023-02-11T00:53:57.511Z,48.47
2023-02-11T00:56:25.317Z,46.95
2023-02-11T00:58:54.095Z,47.63
2023-02-11T01:01:21.676Z,51.38
2023-02-11T01:03:49.635Z,49.42
2023-02-11T01:06:17.510Z,49.28
2023-02-11T01:08:45.420Z,49.22
2023-02-11T01:11:18.322Z,49.33
2023-02-11T01:13:48.188Z,50.70
2023-02-11T01:16:17.263Z,47.67
2023-02-11T01:18:47.305Z,49.45
2023-02-11T01:21:15.137Z,51.33
2023-02-11T01:23:44.488Z,48.92
2023-02-11T01:26:13.315Z,50.80
2023-02-11T01:28:41.195Z,48.45
2023-02-11T01:31:08.756Z,47.65
2023-02-11T01:33:36.698Z,47.10
2023-02-11T01:36:08.713Z,46.30
2023-02-11T01:38:36.858Z,44.00
2023-02-11T01:41:11.613Z,47.50
2023-02-11T01:43:45.338Z,45.50
2023-02-11T01:46:36.896Z,41.13
2023-02-11T01:49:18.692Z,40.83
2023-02-11T01:52:22.289Z,45.88
2023-02-11T01:55:12.603Z,46.15
2023-02-11T01:57:45.479Z,43.28
2023-02-11T02:00:27.501Z,47.95
2023-02-11T02:03:00.695Z,48.60
2023-02-11T02:05:49.187Z,43.28
2023-02-11T02:08:47.136Z,44.60
2023-02-11T02:11:15.110Z,43.50
2023-02-11T02:13:42.753Z,45.50
2023-02-11T02:16:17.967Z,48.72
2023-02-11T02:19:41.431Z,48.45
2023-02-11T02:22:18.077Z,46.35
2023-02-11T02:25:10.389Z,46.75
2023-02-11T02:27:59.827Z,49.50
2023-02-11T02:30:56.194Z,48.22
2023-02-11T02:33:53.118Z,46.65
2023-02-11T02:36:32.315Z,45.03
2023-02-11T02:41:51.016Z,47.65
2023-02-11T02:44:20.136Z,50.58
2023-02-11T02:46:47.831Z,49.78
2023-02-11T02:49:17.363Z,50.92
2023-02-11T02:52:06.339Z,49.85
2023-02-11T02:57:28.024Z,47.83
2023-02-11T03:00:29.899Z,48.83
2023-02-11T03:03:24.083Z,46.33
2023-02-11T03:06:05.998Z,45.47
2023-02-11T03:08:49.328Z,47.67
2023-02-11T03:11:20.501Z,47.15
2023-02-11T03:13:49.713Z,46.72
2023-02-11T03:19:29.035Z,41.20
2023-02-11T03:21:57.894Z,44.78
2023-02-11T03:24:32.120Z,42.55
2023-02-11T03:27:17.807Z,44.35
2023-02-11T03:29:59.953Z,44.42
2023-02-11T03:32:49.467Z,46.55
2023-02-11T03:36:02.887Z,45.72
2023-02-11T03:38:36.564Z,43.25
2023-02-11T03:41:08.215Z,47.80
2023-02-11T03:43:51.861Z,48.88
2023-02-11T03:46:27.686Z,49.42
2023-02-11T03:49:02.306Z,50.15
2023-02-11T03:51:32.495Z,49.85
2023-02-11T03:54:05.840Z,48.97
2023-02-11T03:56:47.920Z,52.70
2023-02-11T03:59:15.722Z,50.95
2023-02-11T04:01:43.514Z,50.58
2023-02-11T04:04:11.401Z,49.63
2023-02-11T04:06:39.202Z,50.03
2023-02-11T04:09:07.306Z,51.35
2023-02-11T04:11:34.875Z,50.42
2023-02-11T04:14:02.629Z,50.95
2023-02-11T04:16:31.114Z,50.85
2023-02-11T04:18:58.928Z,51.33
2023-02-11T04:21:26.458Z,50.65
2023-02-11T04:23:54.330Z,50.47
2023-02-11T04:26:21.900Z,52.80
2023-02-11T04:28:49.703Z,50.35
2023-02-11T04:31:17.441Z,54.70
2023-02-11T04:33:45.312Z,55.45
2023-02-11T04:36:13.056Z,52.45
2023-02-11T04:38:40.946Z,56.90
2023-02-11T04:41:08.515Z,57.53
2023-02-11T04:43:36.319Z,50.92
2023-02-11T04:46:04.009Z,52.03
2023-02-11T04:48:32.151Z,52.97
2023-02-11T04:50:59.583Z,46.40
2023-02-11T04:53:27.583Z,42.55
2023-02-11T04:55:55.511Z,38.47
2023-02-11T04:58:24.361Z,40.00
2023-02-11T05:00:52.576Z,43.80
2023-02-11T05:03:20.475Z,41.43
2023-02-11T05:05:48.292Z,40.13
2023-02-11T05:08:16.287Z,39.97
2023-02-11T05:10:48.129Z,37.67
2023-02-11T05:13:16.044Z,39.33
2023-02-11T05:15:43.852Z,39.88
2023-02-11T05:18:11.799Z,39.38
2023-02-11T05:20:40.363Z,41.63
2023-02-11T05:23:08.557Z,42.50
2023-02-11T05:25:36.217Z,42.05
2023-02-11T05:28:05.072Z,42.40
2023-02-11T05:30:33.087Z,39.35
2023-02-11T05:33:01.118Z,38.38
2023-02-11T05:35:28.570Z,44.20
2023-02-11T05:37:56.399Z,41.47
2023-02-11T05:40:23.833Z,39.35
2023-02-11T05:42:51.642Z,38.65
2023-02-11T05:45:19.250Z,38.42
2023-02-11T05:47:47.091Z,39.92
2023-02-11T05:50:14.859Z,37.97
2023-02-11T05:52:42.727Z,39.30
2023-02-11T05:55:10.583Z,40.83
2023-02-11T05:57:38.475Z,39.75
2023-02-11T06:00:08.013Z,40.83
2023-02-11T06:02:40.752Z,41.88
2023-02-11T06:05:09.054Z,42.08
2023-02-11T06:07:36.886Z,46.83
2023-02-11T06:10:05.099Z,45.97
2023-02-11T06:12:32.938Z,48.50
2023-02-11T06:15:00.420Z,47.67
2023-02-11T06:17:32.973Z,46.22
2023-02-11T06:20:02.933Z,49.88
2023-02-11T06:22:30.904Z,50.25
2023-02-11T06:25:01.583Z,48.70
2023-02-11T06:27:30.780Z,47.35
2023-02-11T06:29:58.620Z,38.90
2023-02-11T06:32:45.642Z,39.33
2023-02-11T06:35:14.845Z,35.97
2023-02-11T06:37:42.944Z,36.20
2023-02-11T06:40:12.320Z,36.00
2023-02-11T06:42:40.540Z,36.45
2023-02-11T06:45:11.072Z,36.50
2023-02-11T06:47:40.622Z,36.80
2023-02-11T06:50:12.461Z,34.97
2023-02-11T06:52:40.736Z,34.20
2023-02-11T06:55:08.533Z,32.10
2023-02-11T06:57:36.459Z,36.67
2023-02-11T07:00:05.842Z,31.73
2023-02-11T07:02:33.917Z,37.03
2023-02-11T07:05:01.567Z,34.28
2023-02-11T07:07:30.432Z,37.40
2023-02-11T07:09:59.388Z,31.60
2023-02-11T07:12:27.406Z,30.27
2023-02-11T07:14:57.648Z,31.92
2023-02-11T07:17:25.580Z,36.05
2023-02-11T07:19:53.202Z,31.02
2023-02-11T07:22:21.047Z,28.50
2023-02-11T07:24:48.714Z,33.65
2023-02-11T07:27:16.635Z,29.38
2023-02-11T07:29:45.890Z,33.80
2023-02-11T07:34:41.767Z,33.50
2023-02-11T07:37:11.020Z,37.42
2023-02-11T07:39:38.634Z,28.73
2023-02-11T07:42:07.087Z,38.05
2023-02-11T07:44:35.177Z,44.75
2023-02-11T07:47:03.915Z,40.83
2023-02-11T07:49:31.974Z,37.72
2023-02-11T07:51:59.843Z,36.17
2023-02-11T07:54:27.342Z,34.67
2023-02-11T07:56:55.382Z,35.20
2023-02-11T07:59:24.933Z,34.67
2023-02-11T08:01:54.410Z,31.98
2023-02-11T08:04:22.052Z,34.83
2023-02-11T08:06:52.817Z,33.05
2023-02-11T08:09:20.539Z,30.40
2023-02-11T08:11:48.426Z,31.75
2023-02-11T08:14:16.303Z,29.15
2023-02-11T08:16:44.204Z,28.13
2023-02-11T08:19:15.199Z,27.20
2023-02-11T08:21:44.119Z,27.35
2023-02-11T08:24:12.473Z,21.13
2023-02-11T08:26:41.110Z,20.20
2023-02-11T08:29:13.234Z,26.90
2023-02-11T08:31:44.447Z,26.85
2023-02-11T08:34:14.490Z,26.50
2023-02-11T08:36:43.865Z,27.13
2023-02-11T08:39:22.324Z,28.48
2023-02-11T08:41:54.498Z,28.55
2023-02-11T08:44:22.962Z,28.17
2023-02-11T08:46:51.775Z,26.55
2023-02-11T08:49:20.380Z,29.60
2023-02-11T08:51:49.307Z,27.98
2023-02-11T08:54:17.084Z,27.77
2023-02-11T08:56:45.755Z,28.85
2023-02-11T08:59:15.660Z,26.63
2023-02-11T09:01:44.435Z,26.85
2023-02-11T09:04:12.388Z,28.98
2023-02-11T09:06:41.108Z,28.58
2023-02-11T09:09:13.720Z,26.48
2023-02-11T09:11:43.813Z,28.35
2023-02-11T09:14:19.950Z,28.52
2023-02-11T09:16:48.856Z,28.30
2023-02-11T09:19:17.310Z,29.53
2023-02-11T09:21:46.983Z,28.40
2023-02-11T09:24:14.992Z,29.23
2023-02-11T09:26:43.709Z,27.35
2023-02-11T09:29:13.091Z,28.55
2023-02-11T09:31:41.578Z,29.13
2023-02-11T09:34:11.181Z,29.98
2023-02-11T09:36:41.156Z,29.98
2023-02-11T09:39:14.626Z,31.25
2023-02-11T09:41:48.180Z,22.90
2023-02-11T09:44:27.590Z,30.00
2023-02-11T09:47:21.492Z,29.13
2023-02-11T09:50:01.449Z,27.58
2023-02-11T09:53:20.694Z,31.17
2023-02-11T09:55:59.756Z,29.40
2023-02-11T10:01:44.680Z,24.65
2023-02-11T10:04:50.879Z,26.05
2023-02-11T10:08:00.945Z,25.40
2023-02-11T10:11:03.443Z,26.77
2023-02-11T10:13:31.625Z,24.55
2023-02-11T10:16:30.050Z,25.47
2023-02-11T10:19:38.012Z,26.40
2023-02-11T10:22:20.902Z,24.80
2023-02-11T10:24:58.506Z,28.25
2023-02-11T10:27:36.552Z,23.88
2023-02-11T10:30:27.437Z,26.27
2023-02-11T10:33:32.973Z,27.30
2023-02-11T10:36:00.899Z,27.55
2023-02-11T10:38:34.760Z,24.77
2023-02-11T10:41:02.595Z,26.02
2023-02-11T10:43:32.365Z,27.05
2023-02-11T10:46:04.970Z,28.20
2023-02-11T10:48:46.762Z,25.98
2023-02-11T10:51:29.543Z,27.13
2023-02-11T10:54:08.487Z,27.65
2023-02-11T10:56:50.287Z,27.70
2023-02-11T10:59:34.143Z,27.45
2023-02-11T11:02:34.732Z,22.98
2023-02-11T11:05:30.211Z,23.88
2023-02-11T11:08:03.319Z,22.90
2023-02-11T11:10:45.089Z,24.17
2023-02-11T11:13:38.721Z,23.48
2023-02-11T11:16:13.474Z,25.23
2023-02-11T11:18:50.223Z,21.70
2023-02-11T11:21:43.603Z,21.15
2023-02-11T11:24:40.362Z,20.73
2023-02-11T11:27:21.929Z,21.98
2023-02-11T11:29:56.407Z,21.00
2023-02-11T11:32:33.818Z,21.20
2023-02-11T11:35:09.721Z,20.88
2023-02-11T11:37:38.947Z,21.08
2023-02-11T11:40:29.823Z,21.10
2023-02-11T11:43:16.848Z,21.13
2023-02-11T11:46:00.307Z,18.55
2023-02-11T11:48:50.966Z,20.10
2023-02-11T11:51:19.502Z,18.85
2023-02-11T11:54:12.850Z,18.90
2023-02-11T11:56:59.097Z,17.17
2023-02-11T11:59:28.556Z,18.23
2023-02-11T12:02:34.435Z,18.80
2023-02-11T12:05:23.947Z,20.00
2023-02-11T12:08:29.951Z,20.42
2023-02-11T12:11:18.100Z,22.15
2023-02-11T12:14:47.446Z,24.15
2023-02-11T12:17:31.645Z,20.98
2023-02-11T12:20:20.353Z,21.95
2023-02-11T12:23:19.106Z,22.15
2023-02-11T12:26:13.153Z,22.73
2023-02-11T12:29:12.899Z,25.90
2023-02-11T12:34:27.268Z,24.67
2023-02-11T12:36:57.485Z,25.52
2023-02-11T12:39:51.562Z,26.70
2023-02-11T12:43:02.627Z,28.13
2023-02-11T12:46:08.950Z,30.23
2023-02-11T12:49:18.240Z,28.30
2023-02-11T12:51:49.450Z,27.75
2023-02-11T12:55:01.134Z,26.20
2023-02-11T12:57:34.554Z,27.98
2023-02-11T13:00:25.425Z,26.55
2023-02-11T13:03:22.538Z,26.33
2023-02-11T13:05:55.521Z,24.15
2023-02-11T13:09:02.902Z,27.92
2023-02-11T13:11:40.995Z,25.17
2023-02-11T13:14:35.361Z,24.00
2023-02-11T13:17:16.184Z,24.00
2023-02-11T13:19:58.288Z,25.05
2023-02-11T13:22:47.141Z,27.20
2023-02-11T13:25:30.054Z,24.40
2023-02-11T13:28:29.249Z,27.02
2023-02-11T13:31:03.078Z,26.70
2023-02-11T13:33:39.573Z,24.02
2023-02-11T13:36:07.800Z,24.58
2023-02-11T13:38:36.794Z,25.90
2023-02-11T13:41:23.612Z,25.95
2023-02-11T13:44:11.089Z,29.00
2023-02-11T13:47:05.023Z,28.58
2023-02-11T13:49:41.166Z,30.13
2023-02-11T13:52:35.022Z,26.67
2023-02-11T13:55:23.406Z,27.88
2023-02-11T13:58:06.421Z,27.48
2023-02-11T14:00:39.201Z,26.95
2023-02-11T14:03:31.615Z,27.08
2023-02-11T14:06:29.990Z,25.52
2023-02-11T14:09:09.728Z,25.90
2023-02-11T14:11:45.123Z,25.30
2023-02-11T14:14:28.952Z,24.20
2023-02-11T14:17:02.037Z,25.77
2023-02-11T14:19:37.238Z,25.67
2023-02-11T14:22:06.672Z,24.65
2023-02-11T14:24:34.971Z,24.77
2023-02-11T14:27:29.484Z,24.58
2023-02-11T14:30:30.965Z,25.25
2023-02-11T14:33:26.456Z,22.15
2023-02-11T14:36:20.573Z,24.02
2023-02-11T14:39:15.272Z,23.15
2023-02-11T14:41:47.740Z,24.05
2023-02-11T14:44:30.076Z,25.17
2023-02-11T14:46:58.908Z,24.13
2023-02-11T14:49:39.337Z,24.05
2023-02-11T14:52:41.799Z,23.20
2023-02-11T14:55:34.631Z,24.88
2023-02-11T14:58:30.982Z,25.02
2023-02-11T15:01:09.074Z,23.70
2023-02-11T15:03:40.866Z,23.70
2023-02-11T15:06:25.470Z,24.85
2023-02-11T15:09:01.059Z,24.52
2023-02-11T15:11:35.252Z,22.65
2023-02-11T15:14:31.606Z,30.45
2023-02-11T15:17:04.732Z,28.75
2023-02-11T15:19:36.100Z,29.70
2023-02-11T15:22:21.973Z,31.50
2023-02-11T15:25:16.831Z,25.20
2023-02-11T15:27:48.765Z,26.25
2023-02-11T15:30:22.878Z,25.70
2023-02-11T15:32:51.196Z,28.90
2023-02-11T15:35:19.570Z,26.48
2023-02-11T15:37:49.573Z,27.08
2023-02-11T15:40:28.046Z,29.23
2023-02-11T15:43:09.383Z,29.25
2023-02-11T15:45:40.388Z,26.58
2023-02-11T15:48:21.115Z,28.02
2023-02-11T15:50:59.078Z,28.63
2023-02-11T15:53:42.419Z,28.60
2023-02-11T15:56:19.014Z,29.38
2023-02-11T15:58:49.530Z,27.60
2023-02-11T16:01:17.690Z,26.40
2023-02-11T16:03:50.623Z,27.17
2023-02-11T16:06:35.816Z,27.02
2023-02-11T16:09:10.265Z,29.23
2023-02-11T16:11:58.276Z,29.80
2023-02-11T16:14:31.824Z,29.08
2023-02-11T16:17:10.262Z,30.23
2023-02-11T16:19:46.663Z,29.52
2023-02-11T16:22:28.639Z,29.33
2023-02-11T16:24:59.848Z,30.25
2023-02-11T16:27:41.449Z,31.88
2023-02-11T16:30:34.676Z,33.65
2023-02-11T16:33:06.027Z,31.58
2023-02-11T16:35:33.685Z,32.55
2023-02-11T16:38:01.586Z,33.13
2023-02-11T16:40:29.305Z,32.75
2023-02-11T16:42:59.869Z,35.40
2023-02-11T16:45:27.498Z,32.85
2023-02-11T16:47:55.499Z,35.83
2023-02-11T16:50:25.551Z,35.50
2023-02-11T16:52:53.704Z,38.03
2023-02-11T16:55:22.301Z,44.03
2023-02-11T16:57:50.398Z,40.03
2023-02-11T17:00:18.578Z,36.33
2023-02-11T17:02:46.647Z,37.45
2023-02-11T17:05:25.962Z,42.92
2023-02-11T17:07:53.986Z,55.85
2023-02-11T17:10:25.582Z,58.63
2023-02-11T17:12:53.663Z,68.70
2023-02-11T17:15:23.663Z,51.97
2023-02-11T17:17:51.522Z,59.58
2023-02-11T17:20:20.593Z,51.38
2023-02-11T17:22:48.851Z,58.42
2023-02-11T17:25:17.591Z,64.45
2023-02-11T17:27:45.805Z,40.67
2023-02-11T17:30:16.734Z,38.88
2023-02-11T17:32:44.663Z,35.78
2023-02-11T17:35:12.787Z,33.78
2023-02-11T17:37:41.418Z,33.65
2023-02-11T17:40:10.518Z,35.08
2023-02-11T17:42:38.805Z,41.42
2023-02-11T17:45:07.576Z,45.63
2023-02-11T17:47:35.672Z,40.65
2023-02-11T17:50:03.810Z,39.45
2023-02-11T17:52:31.730Z,35.28
2023-02-11T17:54:59.379Z,37.00
2023-02-11T17:57:27.236Z,36.55
2023-02-11T17:59:54.885Z,39.97
2023-02-11T18:02:22.889Z,39.38
2023-02-11T18:04:52.327Z,43.15
2023-02-11T18:07:20.419Z,42.83
2023-02-11T18:09:47.903Z,38.90
2023-02-11T18:12:17.946Z,32.22
2023-02-11T18:14:45.367Z,32.55
2023-02-11T18:17:13.239Z,33.22
2023-02-11T18:19:40.705Z,36.72
2023-02-11T18:22:09.764Z,37.10
2023-02-11T18:24:37.338Z,38.23
2023-02-11T18:27:05.547Z,38.47
2023-02-11T18:29:33.474Z,35.38
2023-02-11T18:32:01.570Z,37.85
2023-02-11T18:34:29.328Z,38.75
2023-02-11T18:36:57.189Z,36.65
2023-02-11T18:39:26.480Z,39.47
2023-02-11T18:41:58.990Z,37.70
2023-02-11T18:44:27.742Z,36.13
2023-02-11T18:46:55.945Z,37.80
2023-02-11T18:49:23.595Z,38.63
2023-02-11T18:51:52.334Z,35.63
2023-02-11T18:54:20.109Z,38.35
2023-02-11T18:56:47.998Z,36.83
2023-02-11T18:59:15.567Z,36.15
2023-02-11T19:01:46.893Z,37.63
2023-02-11T19:04:19.896Z,35.92
2023-02-11T19:06:52.359Z,32.10
2023-02-11T19:09:20.906Z,35.20
2023-02-11T19:11:50.500Z,47.88
2023-02-11T19:14:28.008Z,35.97
2023-02-11T19:16:59.670Z,38.30
2023-02-11T19:19:31.250Z,38.47
2023-02-11T19:22:01.026Z,39.03
2023-02-11T19:24:30.490Z,40.03
2023-02-11T19:27:03.156Z,38.30
2023-02-11T19:29:35.372Z,38.33
2023-02-11T19:32:06.378Z,38.30
2023-02-11T19:34:41.152Z,39.42
2023-02-11T19:37:12.877Z,38.08
2023-02-11T19:39:42.565Z,42.17
2023-02-11T19:42:11.259Z,42.30
2023-02-11T19:44:38.977Z,39.58
2023-02-11T19:47:07.140Z,41.63
2023-02-11T19:49:34.672Z,44.92
2023-02-11T19:52:02.579Z,45.03
2023-02-11T19:54:30.261Z,42.60
2023-02-11T19:56:59.155Z,39.25
2023-02-11T19:59:26.844Z,42.55
2023-02-11T20:01:54.898Z,41.17
2023-02-11T20:04:28.910Z,40.20
2023-02-11T20:07:16.658Z,41.78
2023-02-11T20:09:47.280Z,42.72
2023-02-11T20:12:20.204Z,38.72
2023-02-11T20:14:56.269Z,40.65
2023-02-11T20:17:33.481Z,40.15
2023-02-11T20:20:02.828Z,39.90
2023-02-11T20:22:30.714Z,41.83
2023-02-11T20:24:58.266Z,38.70
2023-02-11T20:27:29.101Z,36.03
2023-02-11T20:29:56.777Z,37.67
2023-02-11T20:32:24.653Z,41.03
2023-02-11T20:34:52.700Z,41.15
2023-02-11T20:37:20.607Z,41.75
2023-02-11T20:39:48.314Z,44.75
2023-02-11T20:42:16.084Z,37.78
2023-02-11T20:44:43.600Z,42.95
2023-02-11T20:47:12.596Z,43.67
2023-02-11T20:49:40.261Z,40.85
2023-02-11T20:52:08.355Z,43.38
2023-02-11T20:54:35.867Z,40.90
2023-02-11T20:57:03.823Z,41.22
2023-02-11T20:59:31.707Z,35.05
2023-02-11T21:02:00.144Z,37.28
2023-02-11T21:04:32.727Z,38.53
2023-02-11T21:07:02.409Z,37.35
2023-02-11T21:09:32.247Z,39.17
2023-02-11T21:12:00.742Z,37.05
2023-02-11T21:14:29.165Z,39.78
2023-02-11T21:16:57.673Z,38.45
2023-02-11T21:19:25.503Z,38.47
2023-02-11T21:21:55.241Z,42.83
2023-02-11T21:24:24.029Z,37.88
2023-02-11T21:26:52.089Z,40.88
2023-02-11T21:29:19.658Z,39.15
2023-02-11T21:31:47.777Z,37.45
2023-02-11T21:34:16.328Z,36.10
2023-02-11T21:36:45.294Z,36.77
2023-02-11T21:39:13.819Z,33.07
2023-02-11T21:41:41.725Z,31.52
2023-02-11T21:44:09.521Z,35.83
2023-02-11T21:46:37.374Z,33.97
2023-02-11T21:49:05.649Z,31.02
2023-02-11T21:51:33.487Z,34.05
2023-02-11T21:54:02.796Z,32.75
2023-02-11T21:56:33.405Z,28.60
2023-02-11T21:59:01.220Z,24.25
2023-02-11T22:01:35.333Z,30.73
2023-02-11T22:04:03.356Z,34.25
2023-02-11T22:06:34.233Z,31.98
2023-02-11T22:09:07.952Z,33.88
2023-02-11T22:11:36.314Z,31.88
2023-02-11T22:14:04.481Z,32.42
2023-02-11T22:16:33.081Z,31.50
2023-02-11T22:19:02.565Z,33.08
2023-02-11T22:21:30.945Z,30.35
2023-02-11T22:23:58.691Z,32.15
2023-02-11T22:26:28.509Z,30.00
2023-02-11T22:31:32.209Z,29.53
2023-02-11T22:34:01.305Z,30.13
2023-02-11T22:36:41.326Z,27.83
2023-02-11T22:39:15.944Z,29.75
2023-02-11T22:41:46.408Z,28.30
2023-02-11T22:44:17.343Z,26.98
2023-02-11T22:46:45.279Z,27.63
2023-02-11T22:49:15.543Z,28.80
2023-02-11T22:51:44.361Z,27.67
2023-02-11T22:54:16.316Z,28.70
2023-02-11T22:56:45.733Z,27.15
2023-02-11T22:59:15.401Z,28.05
2023-02-11T23:01:43.938Z,27.83
2023-02-11T23:04:14.735Z,30.55
2023-02-11T23:06:43.295Z,28.65
2023-02-11T23:09:12.601Z,28.58
2023-02-11T23:11:41.619Z,26.40
2023-02-11T23:14:12.137Z,27.70
2023-02-11T23:16:40.452Z,28.27
2023-02-11T23:19:10.478Z,28.70
2023-02-11T23:21:39.763Z,24.83
2023-02-11T23:24:14.980Z,27.55
2023-02-11T23:26:44.440Z,28.20
2023-02-11T23:29:12.796Z,28.08
2023-02-11T23:31:45.282Z,26.45
2023-02-11T23:34:18.500Z,27.70
2023-02-11T23:36:46.425Z,27.88
2023-02-11T23:39:15.949Z,27.40
2023-02-11T23:41:44.558Z,28.00
2023-02-11T23:44:12.487Z,27.00
2023-02-11T23:46:40.337Z,27.42
2023-02-11T23:49:07.949Z,27.27
2023-02-11T23:51:35.837Z,32.05
2023-02-11T23:54:03.520Z,30.25
2023-02-11T23:56:31.531Z,29.80
2023-02-11T23:58:59.681Z,30.98
